sensor_id;sensor_type;location;lat;lon;timestamp;P1;durP1;ratioP1;P2;durP2;ratioP2
18596;SDS011;9428;50.950;6.912;2022-08-27T00:02:24;5.82;;;3.38;;
18596;SDS011;9428;50.950;6.912;2022-08-27T00:05:13;4.15;;;3.20;;
18596;SDS011;9428;50.950;6.912;2022-08-27T00:08:02;4.80;;;3.22;;
18596;SDS011;9428;50.950;6.912;2022-08-27T00:10:50;5.72;;;3.20;;
18596;SDS011;9428;50.950;6.912;2022-08-27T00:13:37;4.13;;;3.13;;
18596;SDS011;9428;50.950;6.912;2022-08-27T00:16:25;4.78;;;3.28;;
18596;SDS011;9428;50.950;6.912;2022-08-27T00:19:12;6.20;;;3.38;;
18596;SDS011;9428;50.950;6.912;2022-08-27T00:22:01;7.82;;;3.92;;
18596;SDS011;9428;50.950;6.912;2022-08-27T00:24:48;7.47;;;4.28;;
18596;SDS011;9428;50.950;6.912;2022-08-27T00:27:36;7.18;;;4.43;;
18596;SDS011;9428;50.950;6.912;2022-08-27T00:30:24;9.38;;;4.38;;
18596;SDS011;9428;50.950;6.912;2022-08-27T00:33:11;16.27;;;8.52;;
18596;SDS011;9428;50.950;6.912;2022-08-27T00:35:58;21.25;;;15.27;;
18596;SDS011;9428;50.950;6.912;2022-08-27T00:38:47;20.30;;;15.90;;
18596;SDS011;9428;50.950;6.912;2022-08-27T00:41:35;23.80;;;16.92;;
18596;SDS011;9428;50.950;6.912;2022-08-27T00:44:23;24.38;;;16.80;;
18596;SDS011;9428;50.950;6.912;2022-08-27T00:47:12;33.03;;;20.10;;
18596;SDS011;9428;50.950;6.912;2022-08-27T00:50:03;29.63;;;21.17;;
18596;SDS011;9428;50.950;6.912;2022-08-27T00:52:53;35.83;;;25.60;;
18596;SDS011;9428;50.950;6.912;2022-08-27T00:55:48;36.75;;;25.08;;
18596;SDS011;9428;50.950;6.912;2022-08-27T00:58:39;41.30;;;26.15;;
18596;SDS011;9428;50.950;6.912;2022-08-27T01:01:29;38.25;;;25.60;;
18596;SDS011;9428;50.950;6.912;2022-08-27T01:04:18;37.35;;;25.48;;
18596;SDS011;9428;50.950;6.912;2022-08-27T01:07:06;21.83;;;14.63;;
18596;SDS011;9428;50.950;6.912;2022-08-27T01:09:54;25.58;;;17.35;;
18596;SDS011;9428;50.950;6.912;2022-08-27T01:12:46;18.27;;;14.15;;
18596;SDS011;9428;50.950;6.912;2022-08-27T01:15:35;24.33;;;18.48;;
18596;SDS011;9428;50.950;6.912;2022-08-27T01:18:22;27.48;;;18.27;;
18596;SDS011;9428;50.950;6.912;2022-08-27T01:21:11;26.70;;;19.83;;
18596;SDS011;9428;50.950;6.912;2022-08-27T01:24:08;31.45;;;20.50;;
18596;SDS011;9428;50.950;6.912;2022-08-27T01:27:22;35.45;;;22.52;;
18596;SDS011;9428;50.950;6.912;2022-08-27T01:30:16;32.70;;;21.98;;
18596;SDS011;9428;50.950;6.912;2022-08-27T01:33:07;33.13;;;24.10;;
18596;SDS011;9428;50.950;6.912;2022-08-27T01:35:55;34.72;;;25.20;;
18596;SDS011;9428;50.950;6.912;2022-08-27T01:38:43;42.10;;;27.42;;
18596;SDS011;9428;50.950;6.912;2022-08-27T01:41:31;42.67;;;29.25;;
18596;SDS011;9428;50.950;6.912;2022-08-27T01:44:19;40.53;;;27.38;;
18596;SDS011;9428;50.950;6.912;2022-08-27T01:47:06;46.72;;;29.98;;
18596;SDS011;9428;50.950;6.912;2022-08-27T01:49:53;45.58;;;30.15;;
18596;SDS011;9428;50.950;6.912;2022-08-27T01:52:41;47.38;;;30.40;;
18596;SDS011;9428;50.950;6.912;2022-08-27T01:55:28;45.80;;;31.63;;
18596;SDS011;9428;50.950;6.912;2022-08-27T01:58:17;47.83;;;31.13;;
18596;SDS011;9428;50.950;6.912;2022-08-27T02:01:08;49.50;;;31.83;;
18596;SDS011;9428;50.950;6.912;2022-08-27T02:03:57;45.72;;;31.85;;
18596;SDS011;9428;50.950;6.912;2022-08-27T02:06:45;49.10;;;30.80;;
18596;SDS011;9428;50.950;6.912;2022-08-27T02:09:32;48.33;;;31.30;;
18596;SDS011;9428;50.950;6.912;2022-08-27T02:12:19;47.53;;;29.90;;
18596;SDS011;9428;50.950;6.912;2022-08-27T02:15:08;51.83;;;31.65;;
18596;SDS011;9428;50.950;6.912;2022-08-27T02:17:56;48.53;;;30.92;;
18596;SDS011;9428;50.950;6.912;2022-08-27T02:20:44;53.45;;;31.60;;
18596;SDS011;9428;50.950;6.912;2022-08-27T02:23:32;51.75;;;30.80;;
18596;SDS011;9428;50.950;6.912;2022-08-27T02:26:20;51.40;;;31.63;;
18596;SDS011;9428;50.950;6.912;2022-08-27T02:29:07;58.20;;;33.58;;
18596;SDS011;9428;50.950;6.912;2022-08-27T02:31:56;52.28;;;32.80;;
18596;SDS011;9428;50.950;6.912;2022-08-27T02:34:44;48.72;;;32.13;;
18596;SDS011;9428;50.950;6.912;2022-08-27T02:37:31;49.50;;;31.13;;
18596;SDS011;9428;50.950;6.912;2022-08-27T02:40:19;53.08;;;31.45;;
18596;SDS011;9428;50.950;6.912;2022-08-27T02:43:07;48.92;;;31.33;;
18596;SDS011;9428;50.950;6.912;2022-08-27T02:45:55;49.92;;;31.77;;
18596;SDS011;9428;50.950;6.912;2022-08-27T02:48:44;47.13;;;30.75;;
18596;SDS011;9428;50.950;6.912;2022-08-27T02:51:31;49.80;;;28.40;;
18596;SDS011;9428;50.950;6.912;2022-08-27T02:54:18;50.20;;;29.27;;
18596;SDS011;9428;50.950;6.912;2022-08-27T02:57:06;45.50;;;28.35;;
18596;SDS011;9428;50.950;6.912;2022-08-27T02:59:53;47.55;;;29.45;;
18596;SDS011;9428;50.950;6.912;2022-08-27T03:02:41;41.13;;;26.95;;
18596;SDS011;9428;50.950;6.912;2022-08-27T03:05:29;41.72;;;27.10;;
18596;SDS011;9428;50.950;6.912;2022-08-27T03:08:16;38.97;;;26.65;;
18596;SDS011;9428;50.950;6.912;2022-08-27T03:11:04;37.42;;;24.38;;
18596;SDS011;9428;50.950;6.912;2022-08-27T03:13:52;39.92;;;25.33;;
18596;SDS011;9428;50.950;6.912;2022-08-27T03:16:39;36.60;;;24.52;;
18596;SDS011;9428;50.950;6.912;2022-08-27T03:19:26;36.08;;;23.98;;
18596;SDS011;9428;50.950;6.912;2022-08-27T03:22:14;36.58;;;22.75;;
18596;SDS011;9428;50.950;6.912;2022-08-27T03:25:02;39.28;;;23.52;;
18596;SDS011;9428;50.950;6.912;2022-08-27T03:27:50;36.03;;;21.95;;
18596;SDS011;9428;50.950;6.912;2022-08-27T03:30:37;33.17;;;20.80;;
18596;SDS011;9428;50.950;6.912;2022-08-27T03:33:25;30.10;;;18.70;;
18596;SDS011;9428;50.950;6.912;2022-08-27T03:36:13;30.25;;;18.02;;
18596;SDS011;9428;50.950;6.912;2022-08-27T03:39:02;29.35;;;18.10;;
18596;SDS011;9428;50.950;6.912;2022-08-27T03:41:49;24.95;;;16.20;;
18596;SDS011;9428;50.950;6.912;2022-08-27T03:44:36;25.60;;;16.67;;
18596;SDS011;9428;50.950;6.912;2022-08-27T03:47:24;25.58;;;16.63;;
18596;SDS011;9428;50.950;6.912;2022-08-27T03:50:11;28.60;;;15.75;;
18596;SDS011;9428;50.950;6.912;2022-08-27T03:52:59;27.45;;;14.65;;
18596;SDS011;9428;50.950;6.912;2022-08-27T03:55:47;28.50;;;15.32;;
18596;SDS011;9428;50.950;6.912;2022-08-27T03:58:35;25.73;;;13.75;;
18596;SDS011;9428;50.950;6.912;2022-08-27T04:01:23;24.88;;;13.73;;
18596;SDS011;9428;50.950;6.912;2022-08-27T04:04:11;23.63;;;13.32;;
18596;SDS011;9428;50.950;6.912;2022-08-27T04:06:58;21.52;;;13.85;;
18596;SDS011;9428;50.950;6.912;2022-08-27T04:09:46;26.15;;;14.05;;
18596;SDS011;9428;50.950;6.912;2022-08-27T04:12:34;21.83;;;12.68;;
18596;SDS011;9428;50.950;6.912;2022-08-27T04:15:22;20.17;;;12.43;;
18596;SDS011;9428;50.950;6.912;2022-08-27T04:18:09;23.33;;;11.88;;
18596;SDS011;9428;50.950;6.912;2022-08-27T04:21:05;21.77;;;13.40;;
18596;SDS011;9428;50.950;6.912;2022-08-27T04:23:53;19.85;;;11.85;;
18596;SDS011;9428;50.950;6.912;2022-08-27T04:26:40;18.00;;;12.20;;
18596;SDS011;9428;50.950;6.912;2022-08-27T04:29:31;18.85;;;12.15;;
18596;SDS011;9428;50.950;6.912;2022-08-27T04:32:19;22.15;;;11.25;;
18596;SDS011;9428;50.950;6.912;2022-08-27T04:35:06;17.23;;;11.13;;
18596;SDS011;9428;50.950;6.912;2022-08-27T04:37:54;23.27;;;11.45;;
18596;SDS011;9428;50.950;6.912;2022-08-27T04:40:41;20.48;;;11.32;;
18596;SDS011;9428;50.950;6.912;2022-08-27T04:43:47;22.75;;;12.75;;
18596;SDS011;9428;50.950;6.912;2022-08-27T04:46:37;22.15;;;13.25;;
18596;SDS011;9428;50.950;6.912;2022-08-27T04:49:26;21.13;;;12.13;;
18596;SDS011;9428;50.950;6.912;2022-08-27T04:52:14;21.15;;;11.43;;
18596;SDS011;9428;50.950;6.912;2022-08-27T04:55:02;13.85;;;9.60;;
18596;SDS011;9428;50.950;6.912;2022-08-27T04:57:49;16.50;;;9.32;;
18596;SDS011;9428;50.950;6.912;2022-08-27T05:00:40;15.32;;;8.95;;
18596;SDS011;9428;50.950;6.912;2022-08-27T05:03:29;13.50;;;8.93;;
18596;SDS011;9428;50.950;6.912;2022-08-27T05:06:17;14.05;;;8.57;;
18596;SDS011;9428;50.950;6.912;2022-08-27T05:09:05;20.27;;;9.57;;
18596;SDS011;9428;50.950;6.912;2022-08-27T05:11:52;16.67;;;8.27;;
18596;SDS011;9428;50.950;6.912;2022-08-27T05:14:40;12.45;;;8.15;;
18596;SDS011;9428;50.950;6.912;2022-08-27T05:17:27;18.33;;;8.35;;
18596;SDS011;9428;50.950;6.912;2022-08-27T05:20:17;21.73;;;8.88;;
18596;SDS011;9428;50.950;6.912;2022-08-27T05:23:05;16.35;;;7.95;;
18596;SDS011;9428;50.950;6.912;2022-08-27T05:25:52;12.30;;;8.30;;
18596;SDS011;9428;50.950;6.912;2022-08-27T05:28:40;15.18;;;8.07;;
18596;SDS011;9428;50.950;6.912;2022-08-27T05:31:28;18.48;;;8.27;;
18596;SDS011;9428;50.950;6.912;2022-08-27T05:34:15;18.63;;;8.90;;
18596;SDS011;9428;50.950;6.912;2022-08-27T05:37:04;13.07;;;8.40;;
18596;SDS011;9428;50.950;6.912;2022-08-27T05:39:51;14.30;;;8.52;;
18596;SDS011;9428;50.950;6.912;2022-08-27T05:42:39;13.13;;;6.70;;
18596;SDS011;9428;50.950;6.912;2022-08-27T05:45:27;12.57;;;7.15;;
18596;SDS011;9428;50.950;6.912;2022-08-27T05:48:15;17.13;;;8.93;;
18596;SDS011;9428;50.950;6.912;2022-08-27T05:51:06;14.38;;;9.02;;
18596;SDS011;9428;50.950;6.912;2022-08-27T05:53:57;18.27;;;8.52;;
18596;SDS011;9428;50.950;6.912;2022-08-27T05:56:46;11.85;;;8.65;;
18596;SDS011;9428;50.950;6.912;2022-08-27T05:59:34;9.68;;;8.27;;
18596;SDS011;9428;50.950;6.912;2022-08-27T06:02:39;15.30;;;10.25;;
18596;SDS011;9428;50.950;6.912;2022-08-27T06:05:27;13.38;;;9.93;;
18596;SDS011;9428;50.950;6.912;2022-08-27T06:08:14;13.88;;;9.50;;
18596;SDS011;9428;50.950;6.912;2022-08-27T06:11:03;23.20;;;11.82;;
18596;SDS011;9428;50.950;6.912;2022-08-27T06:13:51;18.38;;;11.73;;
18596;SDS011;9428;50.950;6.912;2022-08-27T06:16:39;12.70;;;10.23;;
18596;SDS011;9428;50.950;6.912;2022-08-27T06:19:27;19.10;;;10.70;;
18596;SDS011;9428;50.950;6.912;2022-08-27T06:22:14;14.25;;;10.85;;
18596;SDS011;9428;50.950;6.912;2022-08-27T06:25:02;11.75;;;9.98;;
18596;SDS011;9428;50.950;6.912;2022-08-27T06:27:51;13.95;;;8.88;;
18596;SDS011;9428;50.950;6.912;2022-08-27T06:30:38;14.93;;;9.30;;
18596;SDS011;9428;50.950;6.912;2022-08-27T06:33:25;11.13;;;8.30;;
18596;SDS011;9428;50.950;6.912;2022-08-27T06:36:14;13.05;;;9.10;;
18596;SDS011;9428;50.950;6.912;2022-08-27T06:39:03;14.00;;;8.35;;
18596;SDS011;9428;50.950;6.912;2022-08-27T06:41:51;12.63;;;8.70;;
18596;SDS011;9428;50.950;6.912;2022-08-27T06:44:40;13.07;;;8.45;;
18596;SDS011;9428;50.950;6.912;2022-08-27T06:47:29;15.27;;;8.30;;
18596;SDS011;9428;50.950;6.912;2022-08-27T06:50:17;13.38;;;8.63;;
18596;SDS011;9428;50.950;6.912;2022-08-27T06:53:04;10.90;;;7.55;;
18596;SDS011;9428;50.950;6.912;2022-08-27T06:55:52;11.85;;;7.65;;
18596;SDS011;9428;50.950;6.912;2022-08-27T06:58:39;11.80;;;8.23;;
18596;SDS011;9428;50.950;6.912;2022-08-27T07:01:30;11.15;;;7.55;;
18596;SDS011;9428;50.950;6.912;2022-08-27T07:04:20;11.55;;;7.57;;
18596;SDS011;9428;50.950;6.912;2022-08-27T07:07:09;13.43;;;8.40;;
18596;SDS011;9428;50.950;6.912;2022-08-27T07:09:58;12.02;;;8.07;;
18596;SDS011;9428;50.950;6.912;2022-08-27T07:12:45;9.70;;;7.15;;
18596;SDS011;9428;50.950;6.912;2022-08-27T07:15:32;10.82;;;7.93;;
18596;SDS011;9428;50.950;6.912;2022-08-27T07:18:24;11.32;;;8.02;;
18596;SDS011;9428;50.950;6.912;2022-08-27T07:21:13;10.95;;;7.50;;
18596;SDS011;9428;50.950;6.912;2022-08-27T07:24:00;17.00;;;7.93;;
18596;SDS011;9428;50.950;6.912;2022-08-27T07:26:50;9.30;;;7.45;;
18596;SDS011;9428;50.950;6.912;2022-08-27T07:29:38;8.02;;;6.78;;
18596;SDS011;9428;50.950;6.912;2022-08-27T07:32:25;9.10;;;7.75;;
18596;SDS011;9428;50.950;6.912;2022-08-27T07:35:14;13.98;;;7.72;;
18596;SDS011;9428;50.950;6.912;2022-08-27T07:38:02;10.00;;;7.32;;
18596;SDS011;9428;50.950;6.912;2022-08-27T07:40:49;12.02;;;7.60;;
18596;SDS011;9428;50.950;6.912;2022-08-27T07:43:36;9.23;;;7.38;;
18596;SDS011;9428;50.950;6.912;2022-08-27T07:46:42;10.20;;;6.82;;
18596;SDS011;9428;50.950;6.912;2022-08-27T07:49:32;14.98;;;7.93;;
18596;SDS011;9428;50.950;6.912;2022-08-27T07:52:21;10.98;;;6.97;;
18596;SDS011;9428;50.950;6.912;2022-08-27T07:55:08;8.50;;;6.57;;
18596;SDS011;9428;50.950;6.912;2022-08-27T07:57:56;9.60;;;7.00;;
18596;SDS011;9428;50.950;6.912;2022-08-27T08:00:44;11.98;;;7.95;;
18596;SDS011;9428;50.950;6.912;2022-08-27T08:03:31;13.38;;;6.95;;
18596;SDS011;9428;50.950;6.912;2022-08-27T08:06:18;11.60;;;7.03;;
18596;SDS011;9428;50.950;6.912;2022-08-27T08:09:07;10.55;;;6.85;;
18596;SDS011;9428;50.950;6.912;2022-08-27T08:11:54;13.05;;;6.68;;
18596;SDS011;9428;50.950;6.912;2022-08-27T08:14:41;14.57;;;6.63;;
18596;SDS011;9428;50.950;6.912;2022-08-27T08:17:30;10.57;;;7.15;;
18596;SDS011;9428;50.950;6.912;2022-08-27T08:20:18;9.35;;;6.00;;
18596;SDS011;9428;50.950;6.912;2022-08-27T08:23:06;12.07;;;8.02;;
18596;SDS011;9428;50.950;6.912;2022-08-27T08:25:54;14.75;;;7.15;;
18596;SDS011;9428;50.950;6.912;2022-08-27T08:28:43;10.50;;;7.20;;
18596;SDS011;9428;50.950;6.912;2022-08-27T08:31:30;10.75;;;5.88;;
18596;SDS011;9428;50.950;6.912;2022-08-27T08:34:18;12.32;;;6.88;;
18596;SDS011;9428;50.950;6.912;2022-08-27T08:37:06;13.50;;;7.32;;
18596;SDS011;9428;50.950;6.912;2022-08-27T08:39:53;13.80;;;7.68;;
18596;SDS011;9428;50.950;6.912;2022-08-27T08:42:43;12.68;;;8.70;;
18596;SDS011;9428;50.950;6.912;2022-08-27T08:45:33;13.90;;;11.40;;
18596;SDS011;9428;50.950;6.912;2022-08-27T08:48:23;18.08;;;12.68;;
18596;SDS011;9428;50.950;6.912;2022-08-27T08:51:16;19.08;;;13.15;;
18596;SDS011;9428;50.950;6.912;2022-08-27T08:54:09;21.13;;;14.75;;
18596;SDS011;9428;50.950;6.912;2022-08-27T08:57:02;15.38;;;12.30;;
18596;SDS011;9428;50.950;6.912;2022-08-27T08:59:55;15.95;;;13.35;;
18596;SDS011;9428;50.950;6.912;2022-08-27T09:02:48;20.83;;;12.68;;
18596;SDS011;9428;50.950;6.912;2022-08-27T09:05:39;16.30;;;12.73;;
18596;SDS011;9428;50.950;6.912;2022-08-27T09:08:32;22.02;;;11.52;;
18596;SDS011;9428;50.950;6.912;2022-08-27T09:11:24;15.02;;;11.57;;
18596;SDS011;9428;50.950;6.912;2022-08-27T09:14:20;14.40;;;11.25;;
18596;SDS011;9428;50.950;6.912;2022-08-27T09:17:12;21.08;;;10.70;;
18596;SDS011;9428;50.950;6.912;2022-08-27T09:20:00;13.75;;;10.90;;
18596;SDS011;9428;50.950;6.912;2022-08-27T09:22:48;12.20;;;10.07;;
18596;SDS011;9428;50.950;6.912;2022-08-27T09:25:42;16.40;;;10.27;;
18596;SDS011;9428;50.950;6.912;2022-08-27T09:28:30;16.38;;;10.13;;
18596;SDS011;9428;50.950;6.912;2022-08-27T09:31:34;16.33;;;9.45;;
18596;SDS011;9428;50.950;6.912;2022-08-27T09:34:31;14.00;;;8.93;;
18596;SDS011;9428;50.950;6.912;2022-08-27T09:37:21;11.35;;;8.45;;
18596;SDS011;9428;50.950;6.912;2022-08-27T09:40:13;11.10;;;7.45;;
18596;SDS011;9428;50.950;6.912;2022-08-27T09:43:05;10.30;;;7.30;;
18596;SDS011;9428;50.950;6.912;2022-08-27T09:45:54;16.20;;;6.70;;
18596;SDS011;9428;50.950;6.912;2022-08-27T09:48:44;14.13;;;8.43;;
18596;SDS011;9428;50.950;6.912;2022-08-27T09:51:32;16.65;;;7.32;;
18596;SDS011;9428;50.950;6.912;2022-08-27T09:54:23;11.60;;;7.13;;
18596;SDS011;9428;50.950;6.912;2022-08-27T09:57:25;10.55;;;7.35;;
18596;SDS011;9428;50.950;6.912;2022-08-27T10:00:24;12.13;;;7.05;;
18596;SDS011;9428;50.950;6.912;2022-08-27T10:03:20;11.77;;;7.35;;
18596;SDS011;9428;50.950;6.912;2022-08-27T10:06:08;12.90;;;6.90;;
18596;SDS011;9428;50.950;6.912;2022-08-27T10:08:58;10.07;;;6.28;;
18596;SDS011;9428;50.950;6.912;2022-08-27T10:11:52;10.32;;;6.50;;
18596;SDS011;9428;50.950;6.912;2022-08-27T10:14:45;12.93;;;6.47;;
18596;SDS011;9428;50.950;6.912;2022-08-27T10:17:37;16.15;;;6.45;;
18596;SDS011;9428;50.950;6.912;2022-08-27T10:20:33;12.38;;;5.78;;
18596;SDS011;9428;50.950;6.912;2022-08-27T10:23:27;12.70;;;6.22;;
18596;SDS011;9428;50.950;6.912;2022-08-27T10:26:23;15.45;;;6.43;;
18596;SDS011;9428;50.950;6.912;2022-08-27T10:29:13;17.45;;;6.22;;
18596;SDS011;9428;50.950;6.912;2022-08-27T10:32:11;11.45;;;6.20;;
18596;SDS011;9428;50.950;6.912;2022-08-27T10:35:12;9.75;;;5.78;;
18596;SDS011;9428;50.950;6.912;2022-08-27T10:38:06;9.10;;;5.07;;
18596;SDS011;9428;50.950;6.912;2022-08-27T10:41:01;8.15;;;5.28;;
18596;SDS011;9428;50.950;6.912;2022-08-27T10:44:04;8.02;;;5.78;;
18596;SDS011;9428;50.950;6.912;2022-08-27T10:47:08;11.50;;;5.20;;
18596;SDS011;9428;50.950;6.912;2022-08-27T10:50:09;9.35;;;5.63;;
18596;SDS011;9428;50.950;6.912;2022-08-27T10:53:04;9.30;;;4.85;;
18596;SDS011;9428;50.950;6.912;2022-08-27T10:55:57;10.40;;;5.55;;
18596;SDS011;9428;50.950;6.912;2022-08-27T10:58:56;6.95;;;4.88;;
18596;SDS011;9428;50.950;6.912;2022-08-27T11:01:57;13.30;;;5.60;;
18596;SDS011;9428;50.950;6.912;2022-08-27T11:04:56;11.05;;;5.82;;
18596;SDS011;9428;50.950;6.912;2022-08-27T11:07:48;12.52;;;5.05;;
18596;SDS011;9428;50.950;6.912;2022-08-27T11:10:41;11.40;;;5.05;;
18596;SDS011;9428;50.950;6.912;2022-08-27T11:13:32;6.55;;;4.80;;
18596;SDS011;9428;50.950;6.912;2022-08-27T11:16:23;10.05;;;4.63;;
18596;SDS011;9428;50.950;6.912;2022-08-27T11:19:13;7.57;;;4.25;;
18596;SDS011;9428;50.950;6.912;2022-08-27T11:22:06;7.70;;;4.40;;
18596;SDS011;9428;50.950;6.912;2022-08-27T11:25:00;8.40;;;5.25;;
18596;SDS011;9428;50.950;6.912;2022-08-27T11:27:52;6.18;;;4.47;;
18596;SDS011;9428;50.950;6.912;2022-08-27T11:30:48;9.40;;;5.47;;
18596;SDS011;9428;50.950;6.912;2022-08-27T11:33:45;11.18;;;5.80;;
18596;SDS011;9428;50.950;6.912;2022-08-27T11:36:53;7.18;;;5.32;;
18596;SDS011;9428;50.950;6.912;2022-08-27T11:40:04;17.40;;;6.20;;
18596;SDS011;9428;50.950;6.912;2022-08-27T11:43:05;12.57;;;6.50;;
18596;SDS011;9428;50.950;6.912;2022-08-27T11:45:55;11.20;;;6.25;;
18596;SDS011;9428;50.950;6.912;2022-08-27T11:48:54;8.10;;;6.07;;
18596;SDS011;9428;50.950;6.912;2022-08-27T11:51:43;7.28;;;5.60;;
18596;SDS011;9428;50.950;6.912;2022-08-27T11:54:31;18.77;;;6.38;;
18596;SDS011;9428;50.950;6.912;2022-08-27T11:57:31;7.05;;;5.30;;
18596;SDS011;9428;50.950;6.912;2022-08-27T12:00:27;9.02;;;5.30;;
18596;SDS011;9428;50.950;6.912;2022-08-27T12:03:23;7.53;;;4.95;;
18596;SDS011;9428;50.950;6.912;2022-08-27T12:06:18;13.48;;;5.90;;
18596;SDS011;9428;50.950;6.912;2022-08-27T12:09:15;10.35;;;6.30;;
18596;SDS011;9428;50.950;6.912;2022-08-27T12:12:06;9.50;;;5.47;;
18596;SDS011;9428;50.950;6.912;2022-08-27T12:15:02;10.70;;;5.65;;
18596;SDS011;9428;50.950;6.912;2022-08-27T12:17:55;11.95;;;6.07;;
18596;SDS011;9428;50.950;6.912;2022-08-27T12:20:55;10.77;;;5.07;;
18596;SDS011;9428;50.950;6.912;2022-08-27T12:23:52;10.15;;;5.63;;
18596;SDS011;9428;50.950;6.912;2022-08-27T12:27:14;9.05;;;5.70;;
18596;SDS011;9428;50.950;6.912;2022-08-27T12:30:19;13.10;;;5.68;;
18596;SDS011;9428;50.950;6.912;2022-08-27T12:33:09;8.43;;;5.00;;
18596;SDS011;9428;50.950;6.912;2022-08-27T12:36:04;6.25;;;4.80;;
18596;SDS011;9428;50.950;6.912;2022-08-27T12:38:57;12.88;;;6.30;;
18596;SDS011;9428;50.950;6.912;2022-08-27T12:41:45;6.93;;;5.00;;
18596;SDS011;9428;50.950;6.912;2022-08-27T12:44:34;9.77;;;6.28;;
18596;SDS011;9428;50.950;6.912;2022-08-27T12:47:21;8.93;;;5.38;;
18596;SDS011;9428;50.950;6.912;2022-08-27T12:50:09;8.50;;;6.30;;
18596;SDS011;9428;50.950;6.912;2022-08-27T12:53:04;6.78;;;5.32;;
18596;SDS011;9428;50.950;6.912;2022-08-27T12:56:26;8.80;;;6.13;;
18596;SDS011;9428;50.950;6.912;2022-08-27T12:59:42;6.85;;;5.28;;
18596;SDS011;9428;50.950;6.912;2022-08-27T13:06:13;12.02;;;6.28;;
18596;SDS011;9428;50.950;6.912;2022-08-27T13:09:03;7.43;;;5.90;;
18596;SDS011;9428;50.950;6.912;2022-08-27T13:11:53;12.25;;;5.85;;
18596;SDS011;9428;50.950;6.912;2022-08-27T13:14:42;7.00;;;5.38;;
18596;SDS011;9428;50.950;6.912;2022-08-27T13:17:29;9.10;;;6.47;;
18596;SDS011;9428;50.950;6.912;2022-08-27T13:20:18;9.98;;;6.15;;
18596;SDS011;9428;50.950;6.912;2022-08-27T13:23:11;10.10;;;6.22;;
18596;SDS011;9428;50.950;6.912;2022-08-27T13:26:02;10.35;;;6.20;;
18596;SDS011;9428;50.950;6.912;2022-08-27T13:28:53;8.18;;;6.78;;
18596;SDS011;9428;50.950;6.912;2022-08-27T13:31:41;7.93;;;6.32;;
18596;SDS011;9428;50.950;6.912;2022-08-27T13:34:30;8.20;;;5.75;;
18596;SDS011;9428;50.950;6.912;2022-08-27T13:37:22;10.95;;;5.10;;
18596;SDS011;9428;50.950;6.912;2022-08-27T13:40:21;10.82;;;5.47;;
18596;SDS011;9428;50.950;6.912;2022-08-27T13:43:13;12.40;;;5.32;;
18596;SDS011;9428;50.950;6.912;2022-08-27T13:46:03;8.77;;;4.97;;
18596;SDS011;9428;50.950;6.912;2022-08-27T13:48:53;8.52;;;4.70;;
18596;SDS011;9428;50.950;6.912;2022-08-27T13:51:43;9.43;;;5.05;;
18596;SDS011;9428;50.950;6.912;2022-08-27T13:54:32;9.98;;;5.45;;
18596;SDS011;9428;50.950;6.912;2022-08-27T13:57:22;8.75;;;4.90;;
18596;SDS011;9428;50.950;6.912;2022-08-27T14:00:13;10.32;;;5.07;;
18596;SDS011;9428;50.950;6.912;2022-08-27T14:03:19;9.52;;;4.20;;
18596;SDS011;9428;50.950;6.912;2022-08-27T14:06:22;9.07;;;5.00;;
18596;SDS011;9428;50.950;6.912;2022-08-27T14:09:10;8.82;;;4.65;;
18596;SDS011;9428;50.950;6.912;2022-08-27T14:12:03;8.45;;;4.82;;
18596;SDS011;9428;50.950;6.912;2022-08-27T14:14:52;8.13;;;4.32;;
18596;SDS011;9428;50.950;6.912;2022-08-27T14:17:39;9.32;;;4.50;;
18596;SDS011;9428;50.950;6.912;2022-08-27T14:20:32;7.30;;;4.45;;
18596;SDS011;9428;50.950;6.912;2022-08-27T14:23:21;7.47;;;3.78;;
18596;SDS011;9428;50.950;6.912;2022-08-27T14:26:09;7.57;;;4.00;;
18596;SDS011;9428;50.950;6.912;2022-08-27T14:28:56;7.53;;;4.13;;
18596;SDS011;9428;50.950;6.912;2022-08-27T14:31:43;10.05;;;4.28;;
18596;SDS011;9428;50.950;6.912;2022-08-27T14:34:31;7.55;;;3.78;;
18596;SDS011;9428;50.950;6.912;2022-08-27T14:37:19;9.80;;;4.20;;
18596;SDS011;9428;50.950;6.912;2022-08-27T14:40:07;7.82;;;3.80;;
18596;SDS011;9428;50.950;6.912;2022-08-27T14:42:55;7.85;;;4.00;;
18596;SDS011;9428;50.950;6.912;2022-08-27T14:45:43;6.78;;;4.55;;
18596;SDS011;9428;50.950;6.912;2022-08-27T14:48:31;6.25;;;3.95;;
18596;SDS011;9428;50.950;6.912;2022-08-27T14:51:22;7.43;;;4.05;;
18596;SDS011;9428;50.950;6.912;2022-08-27T14:54:12;6.70;;;3.97;;
18596;SDS011;9428;50.950;6.912;2022-08-27T14:56:59;6.22;;;3.65;;
18596;SDS011;9428;50.950;6.912;2022-08-27T14:59:47;8.15;;;4.47;;
18596;SDS011;9428;50.950;6.912;2022-08-27T15:02:34;8.00;;;4.30;;
18596;SDS011;9428;50.950;6.912;2022-08-27T15:05:25;8.80;;;4.97;;
18596;SDS011;9428;50.950;6.912;2022-08-27T15:08:12;9.65;;;5.30;;
18596;SDS011;9428;50.950;6.912;2022-08-27T15:11:01;11.48;;;4.97;;
18596;SDS011;9428;50.950;6.912;2022-08-27T15:13:49;10.63;;;5.63;;
18596;SDS011;9428;50.950;6.912;2022-08-27T15:16:37;7.53;;;5.20;;
18596;SDS011;9428;50.950;6.912;2022-08-27T15:19:26;12.90;;;5.90;;
18596;SDS011;9428;50.950;6.912;2022-08-27T15:22:15;8.38;;;5.93;;
18596;SDS011;9428;50.950;6.912;2022-08-27T15:25:04;11.43;;;5.82;;
18596;SDS011;9428;50.950;6.912;2022-08-27T15:27:54;9.45;;;6.03;;
18596;SDS011;9428;50.950;6.912;2022-08-27T15:30:41;10.73;;;5.45;;
18596;SDS011;9428;50.950;6.912;2022-08-27T15:33:29;6.75;;;4.22;;
18596;SDS011;9428;50.950;6.912;2022-08-27T15:36:16;9.02;;;3.47;;
18596;SDS011;9428;50.950;6.912;2022-08-27T15:39:04;9.65;;;4.15;;
18596;SDS011;9428;50.950;6.912;2022-08-27T15:41:51;10.52;;;4.28;;
18596;SDS011;9428;50.950;6.912;2022-08-27T15:44:42;7.82;;;4.00;;
18596;SDS011;9428;50.950;6.912;2022-08-27T15:47:31;5.78;;;3.85;;
18596;SDS011;9428;50.950;6.912;2022-08-27T15:50:18;6.25;;;3.85;;
18596;SDS011;9428;50.950;6.912;2022-08-27T15:53:06;6.70;;;3.45;;
18596;SDS011;9428;50.950;6.912;2022-08-27T15:55:54;5.35;;;2.92;;
18596;SDS011;9428;50.950;6.912;2022-08-27T15:58:41;5.78;;;3.20;;
18596;SDS011;9428;50.950;6.912;2022-08-27T16:01:32;5.97;;;3.38;;
18596;SDS011;9428;50.950;6.912;2022-08-27T16:04:21;4.30;;;3.33;;
18596;SDS011;9428;50.950;6.912;2022-08-27T16:07:08;8.10;;;3.20;;
18596;SDS011;9428;50.950;6.912;2022-08-27T16:09:56;6.43;;;3.50;;
18596;SDS011;9428;50.950;6.912;2022-08-27T16:12:43;6.60;;;3.05;;
18596;SDS011;9428;50.950;6.912;2022-08-27T16:15:31;8.80;;;3.38;;
18596;SDS011;9428;50.950;6.912;2022-08-27T16:18:21;7.18;;;3.45;;
18596;SDS011;9428;50.950;6.912;2022-08-27T16:21:11;5.18;;;3.40;;
18596;SDS011;9428;50.950;6.912;2022-08-27T16:23:59;6.55;;;3.58;;
18596;SDS011;9428;50.950;6.912;2022-08-27T16:26:46;11.73;;;3.67;;
18596;SDS011;9428;50.950;6.912;2022-08-27T16:29:34;8.63;;;3.42;;
18596;SDS011;9428;50.950;6.912;2022-08-27T16:32:21;7.53;;;3.20;;
18596;SDS011;9428;50.950;6.912;2022-08-27T16:35:10;10.63;;;2.67;;
18596;SDS011;9428;50.950;6.912;2022-08-27T16:37:59;10.30;;;3.45;;
18596;SDS011;9428;50.950;6.912;2022-08-27T16:40:49;7.57;;;3.22;;
18596;SDS011;9428;50.950;6.912;2022-08-27T16:43:38;10.20;;;3.20;;
18596;SDS011;9428;50.950;6.912;2022-08-27T16:46:26;7.38;;;3.00;;
18596;SDS011;9428;50.950;6.912;2022-08-27T16:49:13;8.68;;;3.42;;
18596;SDS011;9428;50.950;6.912;2022-08-27T16:52:19;13.18;;;4.20;;
18596;SDS011;9428;50.950;6.912;2022-08-27T16:55:08;5.57;;;2.95;;
18596;SDS011;9428;50.950;6.912;2022-08-27T16:57:56;8.38;;;3.80;;
18596;SDS011;9428;50.950;6.912;2022-08-27T17:00:43;6.78;;;3.40;;
18596;SDS011;9428;50.950;6.912;2022-08-27T17:03:31;9.05;;;3.40;;
18596;SDS011;9428;50.950;6.912;2022-08-27T17:06:26;6.80;;;2.92;;
18596;SDS011;9428;50.950;6.912;2022-08-27T17:09:16;7.47;;;2.72;;
18596;SDS011;9428;50.950;6.912;2022-08-27T17:12:04;8.88;;;3.03;;